sensor_id;sensor_type;location;lat;lon;timestamp;P1;durP1;ratioP1;P2;durP2;ratioP2
60436;SDS011;46289;51.992;4.498;2022-08-21T00:00:39;12.68;;;4.05;;
60436;SDS011;46289;51.992;4.498;2022-08-21T00:03:10;9.93;;;4.13;;
60436;SDS011;46289;51.992;4.498;2022-08-21T00:05:42;11.25;;;4.20;;
60436;SDS011;46289;51.992;4.498;2022-08-21T00:08:13;11.07;;;4.30;;
60436;SDS011;46289;51.992;4.498;2022-08-21T00:10:46;16.00;;;4.40;;
60436;SDS011;46289;51.992;4.498;2022-08-21T00:15:48;9.27;;;3.85;;
60436;SDS011;46289;51.992;4.498;2022-08-21T00:18:18;16.08;;;4.68;;
60436;SDS011;46289;51.992;4.498;2022-08-21T00:20:49;11.15;;;5.10;;
60436;SDS011;46289;51.992;4.498;2022-08-21T00:23:21;15.73;;;5.03;;
60436;SDS011;46289;51.992;4.498;2022-08-21T00:25:54;9.98;;;4.93;;
60436;SDS011;46289;51.992;4.498;2022-08-21T00:28:29;10.77;;;4.45;;
60436;SDS011;46289;51.992;4.498;2022-08-21T00:31:03;9.30;;;4.55;;
60436;SDS011;46289;51.992;4.498;2022-08-21T00:33:34;9.23;;;4.18;;
60436;SDS011;46289;51.992;4.498;2022-08-21T00:36:04;10.57;;;3.65;;
60436;SDS011;46289;51.992;4.498;2022-08-21T00:38:34;11.50;;;4.60;;
60436;SDS011;46289;51.992;4.498;2022-08-21T00:41:08;12.35;;;3.90;;
60436;SDS011;46289;51.992;4.498;2022-08-21T00:44:01;10.13;;;4.93;;
60436;SDS011;46289;51.992;4.498;2022-08-21T00:46:31;10.95;;;5.30;;
60436;SDS011;46289;51.992;4.498;2022-08-21T00:49:01;16.65;;;5.93;;
60436;SDS011;46289;51.992;4.498;2022-08-21T00:51:38;10.27;;;4.40;;
60436;SDS011;46289;51.992;4.498;2022-08-21T00:54:12;9.02;;;3.55;;
60436;SDS011;46289;51.992;4.498;2022-08-21T00:56:48;10.52;;;3.90;;
60436;SDS011;46289;51.992;4.498;2022-08-21T00:59:26;16.05;;;4.68;;
60436;SDS011;46289;51.992;4.498;2022-08-21T01:02:03;17.13;;;7.40;;
60436;SDS011;46289;51.992;4.498;2022-08-21T01:04:37;14.15;;;7.57;;
60436;SDS011;46289;51.992;4.498;2022-08-21T01:07:07;13.57;;;5.68;;
60436;SDS011;46289;51.992;4.498;2022-08-21T01:09:39;62.60;;;33.05;;
60436;SDS011;46289;51.992;4.498;2022-08-21T01:12:12;26.95;;;17.27;;
60436;SDS011;46289;51.992;4.498;2022-08-21T01:14:42;23.95;;;11.48;;
60436;SDS011;46289;51.992;4.498;2022-08-21T01:17:14;23.20;;;10.40;;
60436;SDS011;46289;51.992;4.498;2022-08-21T01:19:46;17.60;;;7.43;;
60436;SDS011;46289;51.992;4.498;2022-08-21T01:22:18;17.88;;;6.28;;
60436;SDS011;46289;51.992;4.498;2022-08-21T01:24:48;14.30;;;4.97;;
60436;SDS011;46289;51.992;4.498;2022-08-21T01:27:19;12.43;;;4.10;;
60436;SDS011;46289;51.992;4.498;2022-08-21T01:29:51;11.98;;;4.13;;
60436;SDS011;46289;51.992;4.498;2022-08-21T01:32:31;12.55;;;3.78;;
60436;SDS011;46289;51.992;4.498;2022-08-21T01:35:05;11.93;;;4.10;;
60436;SDS011;46289;51.992;4.498;2022-08-21T01:37:40;9.38;;;4.18;;
60436;SDS011;46289;51.992;4.498;2022-08-21T01:40:11;9.95;;;4.15;;
60436;SDS011;46289;51.992;4.498;2022-08-21T01:42:43;14.20;;;6.70;;
60436;SDS011;46289;51.992;4.498;2022-08-21T01:45:15;13.65;;;6.90;;
60436;SDS011;46289;51.992;4.498;2022-08-21T01:47:45;15.90;;;6.45;;
60436;SDS011;46289;51.992;4.498;2022-08-21T01:50:18;10.38;;;5.22;;
60436;SDS011;46289;51.992;4.498;2022-08-21T01:52:52;11.23;;;4.85;;
60436;SDS011;46289;51.992;4.498;2022-08-21T01:55:23;15.07;;;4.82;;
60436;SDS011;46289;51.992;4.498;2022-08-21T01:57:53;13.75;;;5.68;;
60436;SDS011;46289;51.992;4.498;2022-08-21T02:00:24;13.07;;;5.38;;
60436;SDS011;46289;51.992;4.498;2022-08-21T02:02:59;13.32;;;5.03;;
60436;SDS011;46289;51.992;4.498;2022-08-21T02:05:31;12.77;;;5.57;;
60436;SDS011;46289;51.992;4.498;2022-08-21T02:08:05;19.58;;;5.30;;
60436;SDS011;46289;51.992;4.498;2022-08-21T02:10:37;12.10;;;4.88;;
60436;SDS011;46289;51.992;4.498;2022-08-21T02:13:14;14.75;;;5.60;;
60436;SDS011;46289;51.992;4.498;2022-08-21T02:15:44;15.88;;;5.28;;
60436;SDS011;46289;51.992;4.498;2022-08-21T02:18:14;13.75;;;5.00;;
60436;SDS011;46289;51.992;4.498;2022-08-21T02:20:45;13.13;;;4.63;;
60436;SDS011;46289;51.992;4.498;2022-08-21T02:23:24;14.13;;;5.65;;
60436;SDS011;46289;51.992;4.498;2022-08-21T02:25:54;13.80;;;6.00;;
60436;SDS011;46289;51.992;4.498;2022-08-21T02:28:24;12.25;;;4.88;;
60436;SDS011;46289;51.992;4.498;2022-08-21T02:31:06;11.32;;;4.40;;
60436;SDS011;46289;51.992;4.498;2022-08-21T02:33:36;12.23;;;4.30;;
60436;SDS011;46289;51.992;4.498;2022-08-21T02:36:08;9.93;;;3.83;;
60436;SDS011;46289;51.992;4.498;2022-08-21T02:38:43;14.05;;;5.88;;
60436;SDS011;46289;51.992;4.498;2022-08-21T02:41:14;12.88;;;4.63;;
60436;SDS011;46289;51.992;4.498;2022-08-21T02:43:45;10.45;;;4.00;;
60436;SDS011;46289;51.992;4.498;2022-08-21T02:46:17;11.23;;;4.20;;
60436;SDS011;46289;51.992;4.498;2022-08-21T02:48:49;15.70;;;4.15;;
60436;SDS011;46289;51.992;4.498;2022-08-21T02:51:20;13.15;;;4.10;;
60436;SDS011;46289;51.992;4.498;2022-08-21T02:56:26;6.45;;;3.20;;
60436;SDS011;46289;51.992;4.498;2022-08-21T02:59:01;8.95;;;3.75;;
60436;SDS011;46289;51.992;4.498;2022-08-21T03:01:31;11.52;;;3.53;;
60436;SDS011;46289;51.992;4.498;2022-08-21T03:04:01;9.60;;;4.05;;
60436;SDS011;46289;51.992;4.498;2022-08-21T03:06:31;10.43;;;3.92;;
60436;SDS011;46289;51.992;4.498;2022-08-21T03:09:07;10.18;;;3.65;;
60436;SDS011;46289;51.992;4.498;2022-08-21T03:11:38;8.18;;;3.45;;
60436;SDS011;46289;51.992;4.498;2022-08-21T03:14:08;10.85;;;3.65;;
60436;SDS011;46289;51.992;4.498;2022-08-21T03:16:38;10.40;;;3.45;;
60436;SDS011;46289;51.992;4.498;2022-08-21T03:19:10;9.55;;;3.60;;
60436;SDS011;46289;51.992;4.498;2022-08-21T03:21:40;10.50;;;3.78;;
60436;SDS011;46289;51.992;4.498;2022-08-21T03:24:13;9.85;;;3.67;;
60436;SDS011;46289;51.992;4.498;2022-08-21T03:26:48;11.63;;;3.75;;
60436;SDS011;46289;51.992;4.498;2022-08-21T03:29:18;9.60;;;3.40;;
60436;SDS011;46289;51.992;4.498;2022-08-21T03:31:48;9.13;;;3.40;;
60436;SDS011;46289;51.992;4.498;2022-08-21T03:34:18;8.98;;;3.10;;
60436;SDS011;46289;51.992;4.498;2022-08-21T03:36:48;9.48;;;3.30;;
60436;SDS011;46289;51.992;4.498;2022-08-21T03:39:21;9.95;;;3.40;;
60436;SDS011;46289;51.992;4.498;2022-08-21T03:41:54;9.98;;;3.75;;
60436;SDS011;46289;51.992;4.498;2022-08-21T03:44:27;11.00;;;4.03;;
60436;SDS011;46289;51.992;4.498;2022-08-21T03:46:57;13.85;;;4.10;;
60436;SDS011;46289;51.992;4.498;2022-08-21T03:49:31;11.25;;;3.80;;
60436;SDS011;46289;51.992;4.498;2022-08-21T03:52:01;10.82;;;3.55;;
60436;SDS011;46289;51.992;4.498;2022-08-21T03:54:37;8.88;;;3.50;;
60436;SDS011;46289;51.992;4.498;2022-08-21T03:57:08;9.35;;;3.55;;
60436;SDS011;46289;51.992;4.498;2022-08-21T03:59:38;15.00;;;5.40;;
60436;SDS011;46289;51.992;4.498;2022-08-21T04:02:10;13.13;;;4.43;;
60436;SDS011;46289;51.992;4.498;2022-08-21T04:07:14;15.35;;;4.32;;
60436;SDS011;46289;51.992;4.498;2022-08-21T04:09:47;10.10;;;3.65;;
60436;SDS011;46289;51.992;4.498;2022-08-21T04:12:18;9.48;;;3.90;;
60436;SDS011;46289;51.992;4.498;2022-08-21T04:14:50;13.13;;;4.90;;
60436;SDS011;46289;51.992;4.498;2022-08-21T04:17:20;16.63;;;4.57;;
60436;SDS011;46289;51.992;4.498;2022-08-21T04:19:50;11.15;;;4.28;;
60436;SDS011;46289;51.992;4.498;2022-08-21T04:22:20;9.63;;;3.53;;
60436;SDS011;46289;51.992;4.498;2022-08-21T04:24:53;14.95;;;4.50;;
60436;SDS011;46289;51.992;4.498;2022-08-21T04:27:23;11.32;;;4.55;;
60436;SDS011;46289;51.992;4.498;2022-08-21T04:29:56;17.10;;;4.30;;
60436;SDS011;46289;51.992;4.498;2022-08-21T04:32:29;12.65;;;4.00;;
60436;SDS011;46289;51.992;4.498;2022-08-21T04:35:03;13.52;;;4.38;;
60436;SDS011;46289;51.992;4.498;2022-08-21T04:37:35;12.18;;;4.30;;
60436;SDS011;46289;51.992;4.498;2022-08-21T04:40:11;13.23;;;3.92;;
60436;SDS011;46289;51.992;4.498;2022-08-21T04:42:43;15.68;;;4.95;;
60436;SDS011;46289;51.992;4.498;2022-08-21T04:45:17;10.73;;;4.60;;
60436;SDS011;46289;51.992;4.498;2022-08-21T04:47:49;15.43;;;4.47;;
60436;SDS011;46289;51.992;4.498;2022-08-21T04:50:20;18.83;;;4.82;;
60436;SDS011;46289;51.992;4.498;2022-08-21T04:55:27;18.35;;;4.70;;
60436;SDS011;46289;51.992;4.498;2022-08-21T05:00:31;10.43;;;3.90;;
60436;SDS011;46289;51.992;4.498;2022-08-21T05:03:01;12.68;;;4.07;;
60436;SDS011;46289;51.992;4.498;2022-08-21T05:05:39;14.20;;;4.55;;
60436;SDS011;46289;51.992;4.498;2022-08-21T05:08:11;12.40;;;4.78;;
60436;SDS011;46289;51.992;4.498;2022-08-21T05:10:46;14.57;;;4.50;;
60436;SDS011;46289;51.992;4.498;2022-08-21T05:13:17;16.48;;;4.95;;
60436;SDS011;46289;51.992;4.498;2022-08-21T05:15:49;19.75;;;4.95;;
60436;SDS011;46289;51.992;4.498;2022-08-21T05:18:18;14.05;;;5.43;;
60436;SDS011;46289;51.992;4.498;2022-08-21T05:20:48;10.82;;;4.50;;
60436;SDS011;46289;51.992;4.498;2022-08-21T05:23:23;13.30;;;6.05;;
60436;SDS011;46289;51.992;4.498;2022-08-21T05:26:12;16.83;;;5.70;;
60436;SDS011;46289;51.992;4.498;2022-08-21T05:28:44;15.10;;;5.30;;
60436;SDS011;46289;51.992;4.498;2022-08-21T05:31:14;14.93;;;5.50;;
60436;SDS011;46289;51.992;4.498;2022-08-21T05:33:44;17.73;;;5.20;;
60436;SDS011;46289;51.992;4.498;2022-08-21T05:36:17;17.38;;;4.40;;
60436;SDS011;46289;51.992;4.498;2022-08-21T05:38:47;15.15;;;5.40;;
60436;SDS011;46289;51.992;4.498;2022-08-21T05:41:20;15.60;;;5.10;;
60436;SDS011;46289;51.992;4.498;2022-08-21T05:43:50;16.63;;;5.83;;
60436;SDS011;46289;51.992;4.498;2022-08-21T05:46:20;16.25;;;5.65;;
60436;SDS011;46289;51.992;4.498;2022-08-21T05:48:50;18.85;;;6.10;;
60436;SDS011;46289;51.992;4.498;2022-08-21T05:51:20;15.15;;;6.00;;
60436;SDS011;46289;51.992;4.498;2022-08-21T05:53:50;16.48;;;5.68;;
60436;SDS011;46289;51.992;4.498;2022-08-21T05:56:23;17.85;;;6.05;;
60436;SDS011;46289;51.992;4.498;2022-08-21T05:58:53;14.15;;;6.00;;
60436;SDS011;46289;51.992;4.498;2022-08-21T06:01:35;18.48;;;5.88;;
60436;SDS011;46289;51.992;4.498;2022-08-21T06:04:05;13.45;;;5.57;;
60436;SDS011;46289;51.992;4.498;2022-08-21T06:06:37;18.25;;;6.50;;
60436;SDS011;46289;51.992;4.498;2022-08-21T06:09:09;15.90;;;5.57;;
60436;SDS011;46289;51.992;4.498;2022-08-21T06:11:42;20.23;;;6.32;;
60436;SDS011;46289;51.992;4.498;2022-08-21T06:14:13;16.73;;;6.05;;
60436;SDS011;46289;51.992;4.498;2022-08-21T06:16:43;10.88;;;5.35;;
60436;SDS011;46289;51.992;4.498;2022-08-21T06:19:13;14.18;;;5.40;;
60436;SDS011;46289;51.992;4.498;2022-08-21T06:21:43;14.43;;;5.45;;
60436;SDS011;46289;51.992;4.498;2022-08-21T06:24:13;13.70;;;4.93;;
60436;SDS011;46289;51.992;4.498;2022-08-21T06:26:46;17.98;;;5.93;;
60436;SDS011;46289;51.992;4.498;2022-08-21T06:29:16;16.88;;;5.75;;
60436;SDS011;46289;51.992;4.498;2022-08-21T06:31:47;17.02;;;6.18;;
60436;SDS011;46289;51.992;4.498;2022-08-21T06:34:18;24.35;;;7.18;;
60436;SDS011;46289;51.992;4.498;2022-08-21T06:36:48;15.18;;;6.35;;
60436;SDS011;46289;51.992;4.498;2022-08-21T06:39:24;18.75;;;5.90;;
60436;SDS011;46289;51.992;4.498;2022-08-21T06:44:35;16.85;;;6.63;;
60436;SDS011;46289;51.992;4.498;2022-08-21T06:47:05;15.45;;;6.45;;
60436;SDS011;46289;51.992;4.498;2022-08-21T06:49:35;19.20;;;6.45;;
60436;SDS011;46289;51.992;4.498;2022-08-21T06:52:07;17.15;;;5.93;;
60436;SDS011;46289;51.992;4.498;2022-08-21T06:54:38;17.92;;;5.70;;
60436;SDS011;46289;51.992;4.498;2022-08-21T06:57:12;19.50;;;6.28;;
60436;SDS011;46289;51.992;4.498;2022-08-21T06:59:42;17.40;;;6.55;;
60436;SDS011;46289;51.992;4.498;2022-08-21T07:02:13;15.07;;;5.32;;
60436;SDS011;46289;51.992;4.498;2022-08-21T07:04:44;18.05;;;5.55;;
60436;SDS011;46289;51.992;4.498;2022-08-21T07:07:13;25.30;;;6.35;;
60436;SDS011;46289;51.992;4.498;2022-08-21T07:09:43;14.18;;;6.00;;
60436;SDS011;46289;51.992;4.498;2022-08-21T07:12:16;22.65;;;6.38;;
60436;SDS011;46289;51.992;4.498;2022-08-21T07:14:46;16.08;;;5.88;;
60436;SDS011;46289;51.992;4.498;2022-08-21T07:17:15;16.15;;;5.88;;
60436;SDS011;46289;51.992;4.498;2022-08-21T07:19:47;18.63;;;5.85;;
60436;SDS011;46289;51.992;4.498;2022-08-21T07:22:18;17.88;;;5.55;;
60436;SDS011;46289;51.992;4.498;2022-08-21T07:24:49;14.38;;;5.50;;
60436;SDS011;46289;51.992;4.498;2022-08-21T07:27:21;15.77;;;5.53;;
60436;SDS011;46289;51.992;4.498;2022-08-21T07:29:52;14.30;;;5.82;;
60436;SDS011;46289;51.992;4.498;2022-08-21T07:32:24;20.40;;;5.97;;
60436;SDS011;46289;51.992;4.498;2022-08-21T07:34:58;14.43;;;5.43;;
60436;SDS011;46289;51.992;4.498;2022-08-21T07:37:36;20.02;;;5.90;;
60436;SDS011;46289;51.992;4.498;2022-08-21T07:40:09;21.00;;;6.50;;
60436;SDS011;46289;51.992;4.498;2022-08-21T07:42:54;17.77;;;6.18;;
60436;SDS011;46289;51.992;4.498;2022-08-21T07:45:45;14.52;;;5.90;;
60436;SDS011;46289;51.992;4.498;2022-08-21T07:48:21;12.32;;;5.80;;
60436;SDS011;46289;51.992;4.498;2022-08-21T07:50:59;15.70;;;5.20;;
60436;SDS011;46289;51.992;4.498;2022-08-21T07:54:52;14.30;;;5.63;;
60436;SDS011;46289;51.992;4.498;2022-08-21T07:57:32;14.95;;;5.25;;
60436;SDS011;46289;51.992;4.498;2022-08-21T08:03:14;13.55;;;5.50;;
60436;SDS011;46289;51.992;4.498;2022-08-21T08:06:04;14.95;;;5.47;;
60436;SDS011;46289;51.992;4.498;2022-08-21T08:09:01;14.80;;;4.88;;
60436;SDS011;46289;51.992;4.498;2022-08-21T08:11:59;15.73;;;5.03;;
60436;SDS011;46289;51.992;4.498;2022-08-21T08:14:47;12.10;;;5.13;;
60436;SDS011;46289;51.992;4.498;2022-08-21T08:17:20;13.88;;;4.65;;
60436;SDS011;46289;51.992;4.498;2022-08-21T08:20:24;14.65;;;5.05;;
60436;SDS011;46289;51.992;4.498;2022-08-21T08:23:39;18.70;;;5.30;;
60436;SDS011;46289;51.992;4.498;2022-08-21T08:26:10;12.60;;;5.57;;
60436;SDS011;46289;51.992;4.498;2022-08-21T08:28:42;13.65;;;4.72;;
60436;SDS011;46289;51.992;4.498;2022-08-21T08:31:20;11.38;;;4.10;;
60436;SDS011;46289;51.992;4.498;2022-08-21T08:33:52;11.52;;;5.22;;
60436;SDS011;46289;51.992;4.498;2022-08-21T08:36:30;13.88;;;5.30;;
60436;SDS011;46289;51.992;4.498;2022-08-21T08:39:08;12.50;;;4.93;;
60436;SDS011;46289;51.992;4.498;2022-08-21T08:41:52;11.65;;;5.07;;
60436;SDS011;46289;51.992;4.498;2022-08-21T08:45:00;13.18;;;4.05;;
60436;SDS011;46289;51.992;4.498;2022-08-21T08:48:01;12.25;;;4.40;;
60436;SDS011;46289;51.992;4.498;2022-08-21T08:51:33;17.05;;;5.45;;
60436;SDS011;46289;51.992;4.498;2022-08-21T08:54:13;14.27;;;4.93;;
60436;SDS011;46289;51.992;4.498;2022-08-21T08:56:46;12.25;;;4.43;;
60436;SDS011;46289;51.992;4.498;2022-08-21T08:59:23;12.57;;;4.43;;
60436;SDS011;46289;51.992;4.498;2022-08-21T09:02:04;11.45;;;4.60;;
60436;SDS011;46289;51.992;4.498;2022-08-21T09:04:35;12.02;;;4.38;;
60436;SDS011;46289;51.992;4.498;2022-08-21T09:07:12;13.15;;;4.70;;
60436;SDS011;46289;51.992;4.498;2022-08-21T09:09:53;15.32;;;4.85;;
60436;SDS011;46289;51.992;4.498;2022-08-21T09:12:37;12.55;;;4.25;;
60436;SDS011;46289;51.992;4.498;2022-08-21T09:15:16;12.30;;;4.43;;
60436;SDS011;46289;51.992;4.498;2022-08-21T09:18:03;11.60;;;4.18;;
60436;SDS011;46289;51.992;4.498;2022-08-21T09:20:45;11.25;;;4.15;;
60436;SDS011;46289;51.992;4.498;2022-08-21T09:23:40;9.45;;;3.83;;
60436;SDS011;46289;51.992;4.498;2022-08-21T09:26:23;11.02;;;3.67;;
60436;SDS011;46289;51.992;4.498;2022-08-21T09:28:56;12.95;;;3.92;;
60436;SDS011;46289;51.992;4.498;2022-08-21T09:31:36;8.20;;;3.70;;
60436;SDS011;46289;51.992;4.498;2022-08-21T09:36:41;6.63;;;2.95;;
60436;SDS011;46289;51.992;4.498;2022-08-21T09:39:24;10.00;;;3.35;;
60436;SDS011;46289;51.992;4.498;2022-08-21T09:42:07;12.18;;;3.45;;
60436;SDS011;46289;51.992;4.498;2022-08-21T09:44:40;10.57;;;3.83;;
60436;SDS011;46289;51.992;4.498;2022-08-21T09:47:11;10.43;;;3.35;;
60436;SDS011;46289;51.992;4.498;2022-08-21T09:49:42;12.45;;;3.28;;
60436;SDS011;46289;51.992;4.498;2022-08-21T09:52:15;9.00;;;3.05;;
60436;SDS011;46289;51.992;4.498;2022-08-21T09:54:55;12.82;;;3.65;;
60436;SDS011;46289;51.992;4.498;2022-08-21T09:57:30;10.30;;;3.20;;
60436;SDS011;46289;51.992;4.498;2022-08-21T10:00:18;13.68;;;3.45;;
60436;SDS011;46289;51.992;4.498;2022-08-21T10:03:09;8.10;;;3.30;;
60436;SDS011;46289;51.992;4.498;2022-08-21T10:05:53;9.10;;;3.17;;
60436;SDS011;46289;51.992;4.498;2022-08-21T10:08:35;9.88;;;3.10;;
60436;SDS011;46289;51.992;4.498;2022-08-21T10:11:11;10.68;;;3.17;;
60436;SDS011;46289;51.992;4.498;2022-08-21T10:16:46;9.43;;;3.33;;
60436;SDS011;46289;51.992;4.498;2022-08-21T10:19:30;10.00;;;3.45;;
60436;SDS011;46289;51.992;4.498;2022-08-21T10:22:14;12.98;;;3.33;;
60436;SDS011;46289;51.992;4.498;2022-08-21T10:25:06;11.25;;;3.03;;
60436;SDS011;46289;51.992;4.498;2022-08-21T10:27:47;12.88;;;3.72;;
60436;SDS011;46289;51.992;4.498;2022-08-21T10:30:41;9.57;;;2.75;;
60436;SDS011;46289;51.992;4.498;2022-08-21T10:33:20;13.63;;;2.92;;
60436;SDS011;46289;51.992;4.498;2022-08-21T10:36:08;7.07;;;2.67;;
60436;SDS011;46289;51.992;4.498;2022-08-21T10:38:49;10.27;;;3.08;;
60436;SDS011;46289;51.992;4.498;2022-08-21T10:41:49;10.07;;;2.88;;
60436;SDS011;46289;51.992;4.498;2022-08-21T10:44:45;8.20;;;2.60;;
60436;SDS011;46289;51.992;4.498;2022-08-21T10:47:25;9.32;;;2.80;;
60436;SDS011;46289;51.992;4.498;2022-08-21T10:50:07;14.90;;;2.88;;
60436;SDS011;46289;51.992;4.498;2022-08-21T10:52:53;8.30;;;2.85;;
60436;SDS011;46289;51.992;4.498;2022-08-21T10:55:35;10.07;;;2.85;;
60436;SDS011;46289;51.992;4.498;2022-08-21T10:58:14;9.88;;;2.75;;
60436;SDS011;46289;51.992;4.498;2022-08-21T11:00:56;10.68;;;3.00;;
60436;SDS011;46289;51.992;4.498;2022-08-21T11:03:41;7.78;;;2.65;;
60436;SDS011;46289;51.992;4.498;2022-08-21T11:06:14;10.02;;;2.35;;
60436;SDS011;46289;51.992;4.498;2022-08-21T11:08:52;7.75;;;2.42;;
60436;SDS011;46289;51.992;4.498;2022-08-21T11:11:35;9.48;;;2.40;;
60436;SDS011;46289;51.992;4.498;2022-08-21T11:14:34;9.82;;;2.83;;
60436;SDS011;46289;51.992;4.498;2022-08-21T11:17:18;7.05;;;2.58;;
60436;SDS011;46289;51.992;4.498;2022-08-21T11:20:06;11.50;;;3.03;;
60436;SDS011;46289;51.992;4.498;2022-08-21T11:22:43;5.50;;;2.30;;
60436;SDS011;46289;51.992;4.498;2022-08-21T11:25:40;10.77;;;3.10;;
60436;SDS011;46289;51.992;4.498;2022-08-21T11:28:15;7.50;;;2.47;;
60436;SDS011;46289;51.992;4.498;2022-08-21T11:30:56;9.55;;;2.63;;
60436;SDS011;46289;51.992;4.498;2022-08-21T11:33:47;8.63;;;2.10;;
60436;SDS011;46289;51.992;4.498;2022-08-21T11:36:29;6.53;;;2.20;;
60436;SDS011;46289;51.992;4.498;2022-08-21T11:39:14;10.77;;;2.58;;
60436;SDS011;46289;51.992;4.498;2022-08-21T11:41:53;8.00;;;2.35;;
60436;SDS011;46289;51.992;4.498;2022-08-21T11:47:13;8.82;;;2.78;;
60436;SDS011;46289;51.992;4.498;2022-08-21T11:49:57;6.90;;;2.35;;
60436;SDS011;46289;51.992;4.498;2022-08-21T11:53:05;9.05;;;2.28;;
60436;SDS011;46289;51.992;4.498;2022-08-21T11:55:41;9.23;;;2.60;;
60436;SDS011;46289;51.992;4.498;2022-08-21T11:58:16;7.20;;;2.47;;
60436;SDS011;46289;51.992;4.498;2022-08-21T12:00:51;11.52;;;3.08;;
60436;SDS011;46289;51.992;4.498;2022-08-21T12:03:31;6.97;;;2.30;;
60436;SDS011;46289;51.992;4.498;2022-08-21T12:06:13;5.88;;;2.13;;
60436;SDS011;46289;51.992;4.498;2022-08-21T12:08:56;5.95;;;2.28;;
60436;SDS011;46289;51.992;4.498;2022-08-21T12:11:45;10.18;;;2.35;;
60436;SDS011;46289;51.992;4.498;2022-08-21T12:14:18;10.25;;;2.58;;
60436;SDS011;46289;51.992;4.498;2022-08-21T12:16:49;7.88;;;2.42;;
60436;SDS011;46289;51.992;4.498;2022-08-21T12:19:28;7.63;;;2.50;;
60436;SDS011;46289;51.992;4.498;2022-08-21T12:22:12;8.52;;;2.28;;
60436;SDS011;46289;51.992;4.498;2022-08-21T12:24:45;7.88;;;2.58;;
60436;SDS011;46289;51.992;4.498;2022-08-21T12:27:22;7.38;;;2.50;;
60436;SDS011;46289;51.992;4.498;2022-08-21T12:32:43;7.10;;;2.50;;
60436;SDS011;46289;51.992;4.498;2022-08-21T12:35:16;8.10;;;2.33;;
60436;SDS011;46289;51.992;4.498;2022-08-21T12:37:56;7.63;;;2.25;;
60436;SDS011;46289;51.992;4.498;2022-08-21T12:40:37;5.30;;;2.58;;
60436;SDS011;46289;51.992;4.498;2022-08-21T12:43:12;8.40;;;2.05;;
60436;SDS011;46289;51.992;4.498;2022-08-21T12:45:47;4.53;;;2.15;;
60436;SDS011;46289;51.992;4.498;2022-08-21T12:48:23;7.07;;;2.20;;
60436;SDS011;46289;51.992;4.498;2022-08-21T12:51:07;7.32;;;2.13;;
60436;SDS011;46289;51.992;4.498;2022-08-21T12:53:44;7.03;;;2.22;;
60436;SDS011;46289;51.992;4.498;2022-08-21T12:56:19;11.15;;;2.65;;
60436;SDS011;46289;51.992;4.498;2022-08-21T12:58:51;8.63;;;2.30;;
60436;SDS011;46289;51.992;4.498;2022-08-21T13:01:26;10.10;;;2.75;;
60436;SDS011;46289;51.992;4.498;2022-08-21T13:04:08;7.93;;;2.63;;
60436;SDS011;46289;51.992;4.498;2022-08-21T13:06:42;7.25;;;2.10;;
60436;SDS011;46289;51.992;4.498;2022-08-21T13:09:18;6.72;;;2.50;;
60436;SDS011;46289;51.992;4.498;2022-08-21T13:11:58;7.75;;;2.50;;
60436;SDS011;46289;51.992;4.498;2022-08-21T13:14:30;9.38;;;2.60;;
60436;SDS011;46289;51.992;4.498;2022-08-21T13:17:11;6.57;;;2.40;;
60436;SDS011;46289;51.992;4.498;2022-08-21T13:19:54;7.85;;;2.75;;
60436;SDS011;46289;51.992;4.498;2022-08-21T13:22:27;8.35;;;2.20;;
60436;SDS011;46289;51.992;4.498;2022-08-21T13:25:09;8.48;;;2.58;;
60436;SDS011;46289;51.992;4.498;2022-08-21T13:27:41;4.68;;;2.25;;
60436;SDS011;46289;51.992;4.498;2022-08-21T13:30:37;6.47;;;2.13;;
60436;SDS011;46289;51.992;4.498;2022-08-21T13:33:13;7.00;;;2.30;;
60436;SDS011;46289;51.992;4.498;2022-08-21T13:35:47;7.05;;;2.35;;
60436;SDS011;46289;51.992;4.498;2022-08-21T13:38:19;8.93;;;2.33;;
60436;SDS011;46289;51.992;4.498;2022-08-21T13:40:56;6.30;;;1.95;;
60436;SDS011;46289;51.992;4.498;2022-08-21T13:43:35;10.40;;;2.28;;
60436;SDS011;46289;51.992;4.498;2022-08-21T13:46:07;6.10;;;2.40;;
60436;SDS011;46289;51.992;4.498;2022-08-21T13:48:41;4.47;;;2.20;;
60436;SDS011;46289;51.992;4.498;2022-08-21T13:51:11;6.25;;;2.15;;
60436;SDS011;46289;51.992;4.498;2022-08-21T13:53:44;5.40;;;2.35;;
60436;SDS011;46289;51.992;4.498;2022-08-21T13:56:25;5.68;;;2.10;;
60436;SDS011;46289;51.992;4.498;2022-08-21T13:59:02;9.53;;;2.63;;
60436;SDS011;46289;51.992;4.498;2022-08-21T14:01:37;8.05;;;2.65;;
60436;SDS011;46289;51.992;4.498;2022-08-21T14:04:22;6.10;;;2.10;;
60436;SDS011;46289;51.992;4.498;2022-08-21T14:07:13;5.72;;;2.20;;
60436;SDS011;46289;51.992;4.498;2022-08-21T14:09:46;7.10;;;2.10;;
60436;SDS011;46289;51.992;4.498;2022-08-21T14:12:23;7.40;;;2.72;;
60436;SDS011;46289;51.992;4.498;2022-08-21T14:15:02;8.18;;;2.65;;
60436;SDS011;46289;51.992;4.498;2022-08-21T14:17:36;5.43;;;2.50;;
60436;SDS011;46289;51.992;4.498;2022-08-21T14:20:11;9.15;;;2.67;;
60436;SDS011;46289;51.992;4.498;2022-08-21T14:22:54;8.32;;;2.55;;
60436;SDS011;46289;51.992;4.498;2022-08-21T14:25:38;5.45;;;2.58;;
60436;SDS011;46289;51.992;4.498;2022-08-21T14:28:24;7.10;;;2.45;;
60436;SDS011;46289;51.992;4.498;2022-08-21T14:31:10;8.43;;;2.60;;
60436;SDS011;46289;51.992;4.498;2022-08-21T14:33:44;6.72;;;2.40;;
60436;SDS011;46289;51.992;4.498;2022-08-21T14:36:14;9.50;;;3.20;;
60436;SDS011;46289;51.992;4.498;2022-08-21T14:38:45;8.77;;;3.15;;
60436;SDS011;46289;51.992;4.498;2022-08-21T14:41:15;10.30;;;3.78;;
60436;SDS011;46289;51.992;4.498;2022-08-21T14:44:07;10.82;;;3.03;;
60436;SDS011;46289;51.992;4.498;2022-08-21T14:46:40;6.82;;;2.90;;
60436;SDS011;46289;51.992;4.498;2022-08-21T14:49:25;8.85;;;3.10;;
60436;SDS011;46289;51.992;4.498;2022-08-21T14:52:04;9.25;;;3.13;;
60436;SDS011;46289;51.992;4.498;2022-08-21T14:54:34;7.05;;;2.72;;
60436;SDS011;46289;51.992;4.498;2022-08-21T14:57:06;6.90;;;3.00;;
60436;SDS011;46289;51.992;4.498;2022-08-21T14:59:40;10.52;;;3.38;;
60436;SDS011;46289;51.992;4.498;2022-08-21T15:02:11;8.35;;;3.15;;
60436;SDS011;46289;51.992;4.498;2022-08-21T15:04:41;9.68;;;3.88;;
60436;SDS011;46289;51.992;4.498;2022-08-21T15:07:11;12.70;;;3.20;;
60436;SDS011;46289;51.992;4.498;2022-08-21T15:09:51;9.43;;;3.65;;
60436;SDS011;46289;51.992;4.498;2022-08-21T15:12:23;7.82;;;2.92;;
60436;SDS011;46289;51.992;4.498;2022-08-21T15:14:56;7.95;;;3.40;;
60436;SDS011;46289;51.992;4.498;2022-08-21T15:17:53;8.10;;;3.20;;
60436;SDS011;46289;51.992;4.498;2022-08-21T15:20:25;10.93;;;4.32;;
60436;SDS011;46289;51.992;4.498;2022-08-21T15:22:55;8.65;;;3.28;;
60436;SDS011;46289;51.992;4.498;2022-08-21T15:25:30;11.95;;;4.18;;
60436;SDS011;46289;51.992;4.498;2022-08-21T15:28:07;24.10;;;10.10;;
60436;SDS011;46289;51.992;4.498;2022-08-21T15:30:46;12.75;;;4.50;;
60436;SDS011;46289;51.992;4.498;2022-08-21T15:33:18;10.80;;;3.70;;
60436;SDS011;46289;51.992;4.498;2022-08-21T15:35:48;11.00;;;3.75;;
60436;SDS011;46289;51.992;4.498;2022-08-21T15:38:18;13.25;;;3.55;;
60436;SDS011;46289;51.992;4.498;2022-08-21T15:40:50;9.90;;;3.40;;
60436;SDS011;46289;51.992;4.498;2022-08-21T15:43:30;8.25;;;2.92;;
60436;SDS011;46289;51.992;4.498;2022-08-21T15:46:14;9.10;;;3.20;;
60436;SDS011;46289;51.992;4.498;2022-08-21T15:48:47;10.23;;;3.35;;
60436;SDS011;46289;51.992;4.498;2022-08-21T15:51:23;11.40;;;4.00;;
60436;SDS011;46289;51.992;4.498;2022-08-21T15:53:55;8.68;;;3.38;;
60436;SDS011;46289;51.992;4.498;2022-08-21T15:56:26;9.23;;;3.10;;
60436;SDS011;46289;51.992;4.498;2022-08-21T15:59:05;11.38;;;3.40;;
60436;SDS011;46289;51.992;4.498;2022-08-21T16:01:40;8.25;;;2.92;;